createdAt,value
2018-09-13T00:02:23.246Z,12.03
2018-09-13T00:04:51.286Z,11.93
2018-09-13T00:07:19.493Z,11.94
2018-09-13T00:09:47.553Z,11.99
2018-09-13T00:12:15.594Z,11.99
2018-09-13T00:14:43.715Z,11.98
2018-09-13T00:17:11.805Z,12.03
2018-09-13T00:19:39.879Z,12.19
2018-09-13T00:22:07.957Z,12.17
2018-09-13T00:24:36.006Z,12.08
2018-09-13T00:27:04.455Z,12.04
2018-09-13T00:29:32.517Z,12.03
2018-09-13T00:32:00.688Z,12.17
2018-09-13T00:34:28.996Z,11.97
2018-09-13T00:36:57.443Z,11.85
2018-09-13T00:39:25.701Z,11.75
2018-09-13T00:41:53.800Z,11.67
2018-09-13T00:44:21.797Z,11.55
2018-09-13T00:46:49.844Z,11.52
2018-09-13T00:49:17.966Z,11.60
2018-09-13T00:51:46.035Z,11.61
2018-09-13T00:54:14.122Z,11.67
2018-09-13T00:56:42.221Z,11.69
2018-09-13T00:59:10.429Z,11.76
2018-09-13T01:01:38.461Z,11.82
2018-09-13T01:04:06.562Z,11.82
2018-09-13T01:06:34.702Z,11.78
2018-09-13T01:09:03.030Z,11.75
2018-09-13T01:11:31.021Z,11.66
2018-09-13T01:13:59.052Z,11.76
2018-09-13T01:16:27.053Z,11.79
2018-09-13T01:18:55.138Z,11.75
2018-09-13T01:21:23.295Z,11.68
2018-09-13T01:23:51.451Z,11.78
2018-09-13T01:26:19.579Z,11.69
2018-09-13T01:28:47.672Z,11.66
2018-09-13T01:31:15.832Z,11.61
2018-09-13T01:33:43.883Z,11.57
2018-09-13T01:36:11.890Z,11.49
2018-09-13T01:38:40.012Z,11.47
2018-09-13T01:41:08.170Z,11.39
2018-09-13T01:43:36.292Z,11.31
2018-09-13T01:46:04.337Z,11.30
2018-09-13T01:48:32.503Z,11.25
2018-09-13T01:51:00.710Z,11.21
2018-09-13T01:53:28.763Z,11.20
2018-09-13T01:55:56.805Z,11.31
2018-09-13T01:58:24.894Z,11.31
2018-09-13T02:00:53.040Z,11.30
2018-09-13T02:03:21.059Z,11.33
2018-09-13T02:05:49.268Z,11.32
2018-09-13T02:08:17.463Z,11.33
2018-09-13T02:10:45.500Z,11.36
2018-09-13T02:13:13.638Z,11.32
2018-09-13T02:15:41.721Z,11.40
2018-09-13T02:18:09.859Z,11.40
2018-09-13T02:20:38.061Z,11.33
2018-09-13T02:23:06.108Z,11.41
2018-09-13T02:25:34.190Z,11.35
2018-09-13T02:28:03.277Z,11.36
2018-09-13T02:30:31.289Z,11.39
2018-09-13T02:32:59.268Z,11.39
2018-09-13T02:35:27.312Z,11.40
2018-09-13T02:37:55.384Z,11.30
2018-09-13T02:40:23.429Z,11.26
2018-09-13T02:42:51.603Z,11.20
2018-09-13T02:45:19.619Z,11.17
2018-09-13T02:47:47.752Z,11.09
2018-09-13T02:50:15.822Z,11.02
2018-09-13T02:52:43.905Z,11.05
2018-09-13T02:55:12.085Z,10.99
2018-09-13T02:57:40.379Z,10.98
2018-09-13T03:00:09.174Z,10.96
2018-09-13T03:02:37.505Z,10.92
2018-09-13T03:05:05.851Z,10.86
2018-09-13T03:07:34.128Z,10.80
2018-09-13T03:10:02.350Z,10.74
2018-09-13T03:12:30.510Z,10.78
2018-09-13T03:14:58.736Z,10.84
2018-09-13T03:17:26.801Z,10.85
2018-09-13T03:19:54.896Z,10.89
2018-09-13T03:22:22.941Z,10.98
2018-09-13T03:24:51.007Z,11.01
2018-09-13T03:27:19.184Z,11.10
2018-09-13T03:29:47.519Z,11.06
2018-09-13T03:32:15.517Z,11.01
2018-09-13T03:34:43.737Z,10.99
2018-09-13T03:37:11.770Z,11.07
2018-09-13T03:39:39.820Z,11.11
2018-09-13T03:42:07.926Z,11.04
2018-09-13T03:44:35.949Z,11.03
2018-09-13T03:47:04.207Z,11.11
2018-09-13T03:49:32.484Z,11.10
2018-09-13T03:52:01.028Z,11.25
2018-09-13T03:54:29.350Z,11.19
2018-09-13T03:56:57.367Z,11.19
2018-09-13T03:59:25.656Z,11.32
2018-09-13T04:01:53.705Z,11.36
2018-09-13T04:04:21.889Z,11.33
2018-09-13T04:06:49.980Z,11.38
2018-09-13T04:09:18.113Z,11.44
2018-09-13T04:11:46.134Z,11.46
2018-09-13T04:14:14.360Z,11.42
2018-09-13T04:16:42.448Z,11.42
2018-09-13T04:19:10.886Z,11.40
2018-09-13T04:21:38.918Z,11.46
2018-09-13T04:24:07.010Z,11.43
2018-09-13T04:26:35.150Z,11.45
2018-09-13T04:29:03.505Z,11.57
2018-09-13T04:31:31.697Z,11.55
2018-09-13T04:33:59.927Z,11.57
2018-09-13T04:36:28.289Z,11.66
2018-09-13T04:38:56.441Z,12.01
2018-09-13T04:41:24.540Z,12.89
2018-09-13T04:43:52.686Z,13.95
2018-09-13T04:46:20.833Z,14.40
2018-09-13T04:48:48.929Z,14.52
2018-09-13T04:51:17.028Z,14.79
2018-09-13T04:53:45.115Z,14.76
2018-09-13T04:56:13.416Z,13.98
2018-09-13T04:58:41.868Z,13.92
2018-09-13T05:01:09.931Z,13.60
2018-09-13T05:03:37.971Z,13.80
2018-09-13T05:06:06.260Z,13.81
2018-09-13T05:08:34.580Z,13.57
2018-09-13T05:11:02.909Z,13.20
2018-09-13T05:13:31.467Z,12.88
2018-09-13T05:15:59.685Z,12.69
2018-09-13T05:18:30.836Z,12.64
2018-09-13T05:20:58.953Z,12.61
2018-09-13T05:23:26.997Z,12.63
2018-09-13T05:25:55.341Z,12.76
2018-09-13T05:28:23.880Z,13.15
2018-09-13T05:30:52.344Z,14.82
2018-09-13T05:33:20.809Z,16.44
2018-09-13T05:35:49.139Z,17.13
2018-09-13T05:38:17.903Z,17.20
2018-09-13T05:40:46.892Z,17.72
2018-09-13T05:43:16.127Z,18.37
2018-09-13T05:45:44.891Z,18.57
2018-09-13T05:48:14.764Z,18.40
2018-09-13T05:50:43.167Z,18.53
2018-09-13T05:53:12.086Z,18.63
2018-09-13T05:55:40.406Z,19.24
2018-09-13T05:58:08.814Z,19.00
2018-09-13T06:00:37.145Z,18.75
2018-09-13T06:03:05.293Z,17.99
2018-09-13T06:05:33.576Z,18.44
2018-09-13T06:08:01.961Z,19.03
2018-09-13T06:10:31.060Z,19.10
2018-09-13T06:12:59.405Z,19.65
2018-09-13T06:15:27.650Z,19.60
2018-09-13T06:17:55.830Z,19.43
2018-09-13T06:20:23.919Z,19.38
2018-09-13T06:22:52.027Z,19.76
2018-09-13T06:25:20.406Z,19.44
2018-09-13T06:27:48.677Z,19.85
2018-09-13T06:30:16.841Z,19.62
2018-09-13T06:32:45.007Z,20.23
2018-09-13T06:35:13.061Z,20.26
2018-09-13T06:37:41.285Z,20.07
2018-09-13T06:40:09.508Z,20.03
2018-09-13T06:42:37.815Z,20.28
2018-09-13T06:45:06.695Z,20.16
2018-09-13T06:47:35.242Z,20.20
2018-09-13T06:50:03.757Z,20.27
2018-09-13T06:52:32.165Z,20.40
2018-09-13T06:55:00.302Z,20.48
2018-09-13T06:57:28.379Z,20.42
2018-09-13T06:59:56.539Z,20.79
2018-09-13T07:02:24.780Z,20.98
2018-09-13T07:04:53.212Z,21.26
2018-09-13T07:07:21.474Z,21.14
2018-09-13T07:09:49.820Z,21.19
2018-09-13T07:12:17.929Z,21.29
2018-09-13T07:14:46.021Z,20.85
2018-09-13T07:17:14.274Z,21.06
2018-09-13T07:19:42.409Z,20.66
2018-09-13T07:22:10.465Z,20.86
2018-09-13T07:24:38.595Z,20.88
2018-09-13T07:27:06.696Z,21.21
2018-09-13T07:29:35.027Z,21.43
2018-09-13T07:32:03.217Z,21.45
2018-09-13T07:34:31.430Z,21.83
2018-09-13T07:36:59.610Z,22.23
2018-09-13T07:39:28.061Z,22.53
2018-09-13T07:41:56.545Z,22.90
2018-09-13T07:44:24.787Z,22.34
2018-09-13T07:46:52.882Z,22.66
2018-09-13T07:49:21.607Z,22.30
2018-09-13T07:51:49.782Z,21.48
2018-09-13T07:54:17.894Z,21.15
2018-09-13T07:56:46.492Z,20.99
2018-09-13T07:59:14.674Z,21.42
2018-09-13T08:01:42.954Z,21.94
2018-09-13T08:04:11.263Z,21.83
2018-09-13T08:06:39.458Z,21.06
2018-09-13T08:09:10.027Z,21.29
2018-09-13T08:11:38.734Z,21.85
2018-09-13T08:14:07.112Z,22.53
2018-09-13T08:16:35.263Z,22.51
2018-09-13T08:19:03.724Z,23.18
2018-09-13T08:21:32.455Z,22.52
2018-09-13T08:24:00.565Z,21.77
2018-09-13T08:26:28.774Z,21.61
2018-09-13T08:28:57.117Z,21.57
2018-09-13T08:31:25.504Z,22.03
2018-09-13T08:33:53.935Z,22.35
2018-09-13T08:36:22.049Z,22.36
2018-09-13T08:38:50.240Z,23.11
2018-09-13T08:41:18.369Z,23.52
2018-09-13T08:43:47.421Z,23.53
2018-09-13T08:46:18.953Z,24.03
2018-09-13T08:48:47.527Z,24.33
2018-09-13T08:51:15.702Z,24.07
2018-09-13T08:53:43.946Z,24.54
2018-09-13T08:56:12.244Z,24.97
2018-09-13T08:58:40.616Z,25.23
2018-09-13T09:01:08.827Z,24.84
2018-09-13T09:03:37.309Z,25.00
2018-09-13T09:06:05.764Z,24.38
2018-09-13T09:08:33.960Z,24.24
2018-09-13T09:11:02.180Z,24.50
2018-09-13T09:13:30.931Z,24.71
2018-09-13T09:15:59.235Z,23.93
2018-09-13T09:18:27.515Z,23.99
2018-09-13T09:20:55.651Z,23.55
2018-09-13T09:23:23.790Z,23.59
2018-09-13T09:25:51.945Z,23.77
2018-09-13T09:28:20.218Z,24.27
2018-09-13T09:30:48.366Z,24.45
2018-09-13T09:33:17.435Z,24.98
2018-09-13T09:35:45.625Z,25.02
2018-09-13T09:38:13.724Z,25.26
2018-09-13T09:40:41.917Z,24.58
2018-09-13T09:43:10.056Z,24.80
2018-09-13T09:45:38.409Z,24.40
2018-09-13T09:48:06.449Z,24.59
2018-09-13T09:50:34.713Z,24.75
2018-09-13T09:53:03.043Z,25.14
2018-09-13T09:55:31.268Z,24.79
2018-09-13T09:57:59.567Z,24.04
2018-09-13T10:00:33.217Z,24.04
2018-09-13T10:03:01.372Z,24.22
2018-09-13T10:05:29.442Z,24.84
2018-09-13T10:07:57.583Z,24.73
2018-09-13T10:10:25.692Z,24.39
2018-09-13T10:12:53.803Z,24.48
2018-09-13T10:15:27.279Z,25.15
2018-09-13T10:18:01.147Z,25.28
2018-09-13T10:20:34.677Z,24.86
2018-09-13T10:23:09.133Z,24.73
2018-09-13T10:25:42.788Z,24.04
2018-09-13T10:28:16.726Z,24.21
2018-09-13T10:30:50.451Z,24.19
2018-09-13T10:33:24.229Z,24.52
2018-09-13T10:35:57.961Z,24.36
2018-09-13T10:38:31.582Z,24.65
2018-09-13T10:41:05.411Z,24.57
2018-09-13T10:43:39.274Z,23.98
2018-09-13T10:46:13.007Z,24.03
2018-09-13T10:49:49.570Z,24.50
2018-09-13T10:52:19.500Z,25.01
2018-09-13T10:54:47.633Z,24.87
2018-09-13T10:57:21.231Z,25.13
2018-09-13T10:59:49.623Z,25.00
2018-09-13T11:02:18.070Z,25.84
2018-09-13T11:04:46.597Z,25.47
2018-09-13T11:07:14.917Z,25.60
2018-09-13T11:09:43.194Z,25.73
2018-09-13T11:12:11.428Z,26.07
2018-09-13T11:14:56.134Z,25.88
2018-09-13T11:17:25.558Z,25.17
2018-09-13T11:19:54.073Z,24.96
2018-09-13T11:22:22.564Z,25.25
2018-09-13T11:24:50.815Z,25.46
2018-09-13T11:27:19.088Z,25.23
2018-09-13T11:29:47.395Z,24.42
2018-09-13T11:32:15.599Z,24.37
2018-09-13T11:34:44.558Z,24.37
2018-09-13T11:37:13.229Z,24.11
2018-09-13T11:39:41.698Z,24.21
2018-09-13T11:42:10.066Z,24.00
2018-09-13T11:44:38.235Z,23.98
2018-09-13T11:47:06.998Z,23.85
2018-09-13T11:49:35.168Z,24.38
2018-09-13T11:52:03.368Z,25.55
2018-09-13T11:54:31.638Z,26.34
2018-09-13T11:56:59.992Z,26.19
2018-09-13T11:59:28.309Z,25.69
2018-09-13T12:01:56.663Z,25.49
2018-09-13T12:04:24.840Z,24.80
2018-09-13T12:06:53.064Z,24.59
2018-09-13T12:09:21.726Z,24.21
2018-09-13T12:11:49.878Z,24.28
2018-09-13T12:14:18.252Z,24.17
2018-09-13T12:16:46.465Z,24.02
2018-09-13T12:19:15.942Z,24.05
2018-09-13T12:21:44.983Z,24.24
2018-09-13T12:24:13.700Z,24.25
2018-09-13T12:26:42.322Z,24.32
2018-09-13T12:29:10.683Z,24.36
2018-09-13T12:31:38.911Z,24.62
2018-09-13T12:34:07.284Z,24.41
2018-09-13T12:36:35.469Z,24.38
2018-09-13T12:39:05.051Z,24.48
2018-09-13T12:41:33.343Z,24.47
2018-09-13T12:44:01.691Z,24.43
2018-09-13T12:46:30.004Z,24.52
2018-09-13T12:48:58.417Z,24.58
2018-09-13T12:51:26.760Z,24.76
2018-09-13T12:53:54.880Z,24.64
2018-09-13T12:56:23.032Z,24.81
2018-09-13T12:58:51.293Z,24.99
2018-09-13T13:01:19.477Z,25.00
2018-09-13T13:03:47.631Z,24.69
2018-09-13T13:06:15.793Z,24.58
2018-09-13T13:08:44.053Z,24.43
2018-09-13T13:11:12.234Z,24.23
2018-09-13T13:13:40.342Z,24.22
2018-09-13T13:16:08.487Z,24.15
2018-09-13T13:18:36.662Z,24.25
2018-09-13T13:21:04.794Z,24.29
2018-09-13T13:23:32.881Z,24.33
2018-09-13T13:26:00.991Z,24.34
2018-09-13T13:28:29.140Z,23.98
2018-09-13T13:30:57.166Z,23.81
2018-09-13T13:33:25.235Z,23.89
2018-09-13T13:35:53.401Z,24.15
2018-09-13T13:38:21.907Z,24.44
2018-09-13T13:40:50.076Z,24.77
2018-09-13T13:43:18.247Z,24.93
2018-09-13T13:45:46.532Z,24.58
2018-09-13T13:48:14.790Z,24.37
2018-09-13T13:50:42.968Z,24.70
2018-09-13T13:53:11.091Z,24.79
2018-09-13T13:55:39.353Z,24.81
2018-09-13T13:58:07.730Z,24.99
2018-09-13T14:00:35.891Z,24.96
2018-09-13T14:03:04.077Z,24.80
2018-09-13T14:05:33.316Z,24.63
2018-09-13T14:08:01.777Z,24.25
2018-09-13T14:10:30.954Z,23.99
2018-09-13T14:12:59.218Z,23.79
2018-09-13T14:15:28.309Z,23.63
2018-09-13T14:17:56.422Z,23.66
2018-09-13T14:20:24.802Z,23.71
2018-09-13T14:22:52.981Z,23.95
2018-09-13T14:25:21.333Z,24.10
2018-09-13T14:27:49.556Z,24.06
2018-09-13T14:30:17.808Z,23.65
2018-09-13T14:32:45.925Z,23.52
2018-09-13T14:35:14.805Z,23.35
2018-09-13T14:37:43.636Z,23.13
2018-09-13T14:40:12.360Z,23.07
2018-09-13T14:42:40.583Z,22.89
2018-09-13T14:45:08.860Z,22.79
2018-09-13T14:47:37.260Z,22.76
2018-09-13T14:50:08.399Z,22.78
2018-09-13T14:52:37.596Z,22.54
2018-09-13T14:55:06.603Z,22.38
2018-09-13T14:57:34.782Z,22.36
2018-09-13T15:00:03.761Z,22.45
2018-09-13T15:02:32.665Z,22.40
2018-09-13T15:05:00.951Z,22.29
2018-09-13T15:07:29.562Z,22.35
2018-09-13T15:09:57.842Z,22.24
2018-09-13T15:12:26.238Z,22.13
2018-09-13T15:14:54.356Z,21.91
2018-09-13T15:17:22.982Z,21.73
2018-09-13T15:19:52.318Z,21.60
2018-09-13T15:22:21.532Z,21.29
2018-09-13T15:24:49.744Z,21.19
2018-09-13T15:27:18.011Z,20.90
2018-09-13T15:29:46.275Z,20.74
2018-09-13T15:32:14.522Z,20.60
2018-09-13T15:34:42.778Z,20.43
2018-09-13T15:37:11.035Z,20.22
2018-09-13T15:39:39.264Z,20.36
2018-09-13T15:42:07.468Z,20.18
2018-09-13T15:44:35.765Z,20.36
2018-09-13T15:47:04.178Z,20.08
2018-09-13T15:49:32.630Z,19.74
2018-09-13T15:52:01.368Z,19.76
2018-09-13T15:54:31.407Z,19.78
2018-09-13T15:56:59.959Z,19.43
2018-09-13T15:59:28.465Z,19.36
2018-09-13T16:01:57.048Z,19.51
2018-09-13T16:04:25.427Z,19.39
2018-09-13T16:06:53.597Z,19.09
2018-09-13T16:09:21.837Z,18.87
2018-09-13T16:11:50.212Z,18.86
2018-09-13T16:14:18.590Z,18.72
2018-09-13T16:16:46.839Z,18.79
2018-09-13T16:19:15.188Z,18.63
2018-09-13T16:21:43.336Z,18.72
2018-09-13T16:24:11.484Z,18.63
2018-09-13T16:26:39.548Z,18.50
2018-09-13T16:29:07.815Z,18.59
2018-09-13T16:31:35.980Z,18.42
2018-09-13T16:34:04.437Z,18.18
2018-09-13T16:36:32.749Z,18.04
2018-09-13T16:39:27.378Z,17.89
2018-09-13T16:42:01.092Z,17.64
2018-09-13T16:44:34.665Z,17.62
2018-09-13T16:48:07.003Z,17.62
2018-09-13T16:50:35.291Z,17.45
2018-09-13T16:53:03.593Z,17.40
2018-09-13T16:55:31.896Z,17.35
2018-09-13T16:58:00.451Z,17.18
2018-09-13T17:00:29.043Z,17.14
2018-09-13T17:02:57.452Z,17.23
2018-09-13T17:05:25.766Z,17.11
2018-09-13T17:07:54.094Z,16.89
2018-09-13T17:10:22.425Z,16.92
2018-09-13T17:12:50.849Z,17.08
2018-09-13T17:15:19.211Z,17.21
2018-09-13T17:17:47.443Z,17.06
2018-09-13T17:20:15.916Z,16.95
2018-09-13T17:22:44.702Z,16.87
2018-09-13T17:25:13.366Z,16.83
2018-09-13T17:27:41.588Z,16.77
2018-09-13T17:30:09.954Z,16.74
2018-09-13T17:32:38.253Z,16.57
2018-09-13T17:35:06.720Z,16.69
2018-09-13T17:37:35.103Z,16.64
2018-09-13T17:40:03.517Z,16.45
2018-09-13T17:42:32.105Z,16.52
2018-09-13T17:45:00.520Z,16.58
2018-09-13T17:47:29.229Z,16.61
2018-09-13T17:49:58.002Z,16.61
2018-09-13T17:52:26.582Z,16.56
2018-09-13T17:54:55.155Z,16.61
2018-09-13T17:57:23.704Z,16.71
2018-09-13T17:59:53.248Z,16.86
2018-09-13T18:02:21.905Z,16.93
2018-09-13T18:04:50.630Z,17.01
2018-09-13T18:07:19.325Z,17.01
2018-09-13T18:09:48.111Z,16.77
2018-09-13T18:12:16.710Z,16.74
2018-09-13T18:14:45.363Z,16.75
2018-09-13T18:17:14.221Z,16.60
2018-09-13T18:19:42.835Z,16.53
2018-09-13T18:22:11.454Z,16.32
2018-09-13T18:24:40.066Z,16.31
2018-09-13T18:27:08.936Z,16.22
2018-09-13T18:29:38.127Z,16.07
2018-09-13T18:32:07.061Z,16.04
2018-09-13T18:34:35.568Z,15.93
2018-09-13T18:37:04.030Z,15.79
2018-09-13T18:39:32.598Z,15.73
2018-09-13T18:42:01.219Z,15.68
2018-09-13T18:44:30.196Z,15.54
2018-09-13T18:46:59.174Z,15.49
2018-09-13T18:49:28.024Z,15.46
2018-09-13T18:51:57.628Z,15.40
2018-09-13T18:54:27.052Z,15.34
2018-09-13T18:56:55.947Z,15.30
2018-09-13T18:59:25.310Z,15.21
2018-09-13T19:01:53.940Z,15.25
2018-09-13T19:04:22.506Z,15.17
2018-09-13T19:06:51.030Z,15.13
2018-09-13T19:09:20.135Z,15.08
2018-09-13T19:11:49.212Z,15.02
2018-09-13T19:14:18.134Z,14.98
2018-09-13T19:16:46.941Z,15.04
2018-09-13T19:19:15.609Z,15.01
2018-09-13T19:21:44.108Z,14.98
2018-09-13T19:24:13.495Z,14.94
2018-09-13T19:26:41.831Z,14.99
2018-09-13T19:29:10.354Z,14.98
2018-09-13T19:31:38.722Z,14.94
2018-09-13T19:34:07.166Z,14.81
2018-09-13T19:36:35.711Z,14.77
2018-09-13T19:39:07.320Z,14.71
2018-09-13T19:41:35.759Z,14.73
2018-09-13T19:44:03.976Z,14.71
2018-09-13T19:46:32.374Z,14.63
2018-09-13T19:49:00.845Z,14.63
2018-09-13T19:51:29.254Z,14.75
2018-09-13T19:53:57.850Z,14.64
2018-09-13T19:56:26.285Z,14.52
2018-09-13T19:58:54.581Z,14.48
2018-09-13T20:01:22.876Z,14.39
2018-09-13T20:03:51.196Z,14.34
2018-09-13T20:06:19.519Z,14.31
2018-09-13T20:08:47.780Z,14.31
2018-09-13T20:11:16.117Z,14.34
2018-09-13T20:13:45.173Z,14.32
2018-09-13T20:16:13.704Z,14.35
2018-09-13T20:18:42.260Z,14.36
2018-09-13T20:21:10.755Z,14.45
2018-09-13T20:23:39.252Z,14.41
2018-09-13T20:26:07.614Z,14.33
2018-09-13T20:28:36.123Z,14.27
2018-09-13T20:31:04.703Z,14.26
2018-09-13T20:33:33.127Z,14.20
2018-09-13T20:36:01.706Z,14.16
2018-09-13T20:38:30.150Z,14.10
2018-09-13T20:41:00.708Z,14.12
2018-09-13T20:43:28.884Z,14.10
2018-09-13T20:45:59.033Z,14.14
2018-09-13T20:48:27.651Z,14.05
2018-09-13T20:50:56.647Z,14.04
2018-09-13T20:53:28.045Z,14.03
2018-09-13T20:55:56.778Z,14.00
2018-09-13T20:58:25.989Z,13.97
2018-09-13T21:00:54.607Z,13.92
2018-09-13T21:03:23.098Z,13.86
2018-09-13T21:05:52.797Z,13.89
2018-09-13T21:08:23.205Z,13.85
2018-09-13T21:10:52.019Z,13.83
2018-09-13T21:13:20.227Z,13.78
2018-09-13T21:15:48.267Z,13.85
2018-09-13T21:18:16.417Z,13.77
2018-09-13T21:20:44.545Z,13.72
2018-09-13T21:23:12.590Z,13.70
2018-09-13T21:25:40.688Z,13.63
2018-09-13T21:28:08.726Z,13.57
2018-09-13T21:30:36.812Z,13.55
2018-09-13T21:33:04.976Z,13.56
2018-09-13T21:35:33.000Z,13.50
2018-09-13T21:38:01.146Z,13.47
2018-09-13T21:40:29.306Z,13.47
2018-09-13T21:42:57.456Z,13.46
2018-09-13T21:45:25.663Z,13.40
2018-09-13T21:47:53.879Z,13.38
2018-09-13T21:50:22.014Z,13.37
2018-09-13T21:52:50.103Z,13.34
2018-09-13T21:55:18.201Z,13.34
2018-09-13T21:57:46.374Z,13.35
2018-09-13T22:00:14.602Z,13.33
2018-09-13T22:02:42.749Z,13.26
2018-09-13T22:05:10.921Z,13.28
2018-09-13T22:07:39.074Z,13.25
2018-09-13T22:10:07.260Z,13.21
2018-09-13T22:12:35.346Z,13.15
2018-09-13T22:15:03.501Z,13.14
2018-09-13T22:17:31.625Z,13.15
2018-09-13T22:19:59.647Z,13.14
2018-09-13T22:22:27.707Z,13.15
2018-09-13T22:24:55.692Z,13.08
2018-09-13T22:27:23.810Z,13.01
2018-09-13T22:29:51.977Z,13.15
2018-09-13T22:32:20.100Z,13.03
2018-09-13T22:34:48.157Z,12.90
2018-09-13T22:37:16.236Z,12.82
2018-09-13T22:39:45.332Z,12.81
2018-09-13T22:42:13.580Z,12.79
2018-09-13T22:44:42.677Z,12.54
2018-09-13T22:47:11.560Z,12.46
2018-09-13T22:49:40.174Z,12.46
2018-09-13T22:52:08.570Z,12.46
2018-09-13T22:54:36.642Z,12.61
2018-09-13T22:57:06.104Z,12.94
2018-09-13T22:59:34.171Z,12.68
2018-09-13T23:02:02.267Z,12.58
2018-09-13T23:04:30.267Z,12.57
2018-09-13T23:06:58.326Z,12.60
2018-09-13T23:09:26.506Z,12.52
2018-09-13T23:11:54.467Z,12.47
2018-09-13T23:14:22.456Z,12.39
2018-09-13T23:16:50.498Z,12.35
2018-09-13T23:19:18.709Z,12.30
2018-09-13T23:21:46.888Z,12.22
2018-09-13T23:24:15.004Z,12.23
2018-09-13T23:26:43.067Z,12.14
2018-09-13T23:29:11.117Z,12.10
2018-09-13T23:31:39.118Z,12.07
2018-09-13T23:34:07.154Z,12.10
2018-09-13T23:36:35.184Z,12.03
2018-09-13T23:39:04.070Z,11.96
2018-09-13T23:41:32.180Z,11.91
2018-09-13T23:44:00.334Z,11.86
2018-09-13T23:46:28.386Z,11.87
2018-09-13T23:48:56.401Z,11.93
2018-09-13T23:51:24.481Z,11.95
2018-09-13T23:53:52.611Z,11.87
2018-09-13T23:56:20.761Z,11.85
2018-09-13T23:58:48.949Z,11.87
